createdAt,value
2017-12-30T00:07:44.230Z,992.9
2017-12-30T00:17:44.259Z,992.86
2017-12-30T00:27:44.224Z,992.87
2017-12-30T00:37:44.189Z,993.15
2017-12-30T00:47:45.964Z,992.99
2017-12-30T00:57:44.217Z,993.17
2017-12-30T01:07:44.271Z,993.39
2017-12-30T01:17:44.224Z,993.31
2017-12-30T01:27:44.319Z,993.09
2017-12-30T01:37:44.265Z,993.17
2017-12-30T01:47:44.319Z,993.14
2017-12-30T01:57:44.278Z,993.19
2017-12-30T02:07:44.248Z,993.04
2017-12-30T02:17:44.331Z,992.98
2017-12-30T02:27:44.260Z,992.95
2017-12-30T02:37:44.324Z,992.77
2017-12-30T02:47:44.284Z,992.75
2017-12-30T02:57:44.364Z,992.79
2017-12-30T03:07:44.348Z,992.62
2017-12-30T03:17:44.380Z,992.63
2017-12-30T03:27:44.333Z,992.72
2017-12-30T03:37:44.390Z,992.62
2017-12-30T03:47:44.356Z,992.6
2017-12-30T03:57:44.415Z,992.73
2017-12-30T04:07:44.396Z,992.7
2017-12-30T04:17:44.357Z,992.7
2017-12-30T04:27:44.431Z,992.65
2017-12-30T04:37:44.385Z,992.63
2017-12-30T04:47:44.418Z,992.43
2017-12-30T04:57:44.394Z,992.38
2017-12-30T05:07:44.463Z,992.39
2017-12-30T05:17:44.423Z,992.28
2017-12-30T05:27:44.493Z,992.28
2017-12-30T05:37:44.380Z,992.35
2017-12-30T05:47:44.522Z,992.12
2017-12-30T05:57:44.463Z,992.09
2017-12-30T06:07:44.533Z,991.67
2017-12-30T06:17:44.502Z,991.62
2017-12-30T06:27:44.445Z,991.55
2017-12-30T06:37:44.503Z,991.48
2017-12-30T06:47:44.466Z,991.13
2017-12-30T06:57:44.521Z,990.98
2017-12-30T07:07:44.542Z,991
2017-12-30T07:17:44.586Z,990.91
2017-12-30T07:27:44.532Z,990.35
2017-12-30T07:37:44.573Z,990.31
2017-12-30T07:47:44.551Z,990.23
2017-12-30T07:57:44.596Z,989.61
2017-12-30T08:07:44.553Z,989.26
2017-12-30T08:17:44.620Z,988.84
2017-12-30T08:27:44.623Z,988.49
2017-12-30T08:37:44.656Z,988.19
2017-12-30T08:47:44.641Z,987.86
2017-12-30T08:57:44.594Z,987.73
2017-12-30T09:07:44.625Z,987.37
2017-12-30T09:17:44.600Z,987.28
2017-12-30T09:27:44.656Z,987.04
2017-12-30T09:37:44.618Z,986.91
2017-12-30T09:47:44.691Z,986.91
2017-12-30T09:57:44.630Z,986.5
2017-12-30T10:07:44.709Z,986.06
2017-12-30T10:17:44.634Z,985.76
2017-12-30T10:27:44.746Z,985.69
2017-12-30T10:37:44.632Z,985.48
2017-12-30T10:47:44.626Z,985.57
2017-12-30T10:57:44.659Z,985.49
2017-12-30T11:07:44.688Z,985.65
2017-12-30T11:17:44.726Z,985.6
2017-12-30T11:27:44.655Z,985.44
2017-12-30T11:37:44.793Z,985.36
2017-12-30T11:47:44.735Z,985.26
2017-12-30T11:57:44.792Z,985.45
2017-12-30T12:07:44.771Z,985.46
2017-12-30T12:17:44.713Z,985.54
2017-12-30T12:27:44.790Z,985.57
2017-12-30T12:37:44.748Z,985.65
2017-12-30T12:47:44.894Z,985.55
2017-12-30T12:57:44.789Z,985.97
2017-12-30T13:07:44.771Z,986.23
2017-12-30T13:17:44.786Z,986.53
2017-12-30T13:27:44.843Z,986.44
2017-12-30T13:37:44.789Z,986.8
2017-12-30T13:47:44.793Z,987.03
2017-12-30T13:57:44.782Z,987.27
2017-12-30T14:07:44.822Z,987.26
2017-12-30T14:17:44.847Z,987.59
2017-12-30T14:27:44.849Z,987.84
2017-12-30T14:37:44.822Z,988.09
2017-12-30T14:47:44.864Z,988.29
2017-12-30T14:57:44.893Z,988.49
2017-12-30T15:07:44.863Z,988.8
2017-12-30T15:17:44.875Z,989.09
2017-12-30T15:27:44.976Z,989.3
2017-12-30T15:37:44.889Z,989.38
2017-12-30T15:47:44.909Z,989.83
2017-12-30T15:57:44.905Z,989.83
2017-12-30T16:07:44.930Z,990.07
2017-12-30T16:17:44.967Z,990.11
2017-12-30T16:27:44.977Z,990.34
2017-12-30T16:37:44.954Z,990.52
2017-12-30T16:47:44.951Z,990.8
2017-12-30T16:57:44.947Z,990.84
2017-12-30T17:07:45.070Z,991.15
2017-12-30T17:17:45.023Z,991.36
2017-12-30T17:27:44.975Z,991.59
2017-12-30T17:37:45.006Z,991.52
2017-12-30T17:47:45.149Z,991.49
2017-12-30T17:57:45.024Z,991.6
2017-12-30T18:07:45.046Z,991.8
2017-12-30T18:17:45.027Z,991.6
2017-12-30T18:27:45.041Z,991.53
2017-12-30T18:37:45.046Z,991.51
2017-12-30T18:47:45.078Z,991.55
2017-12-30T18:57:45.147Z,991.81
2017-12-30T19:07:45.108Z,992.05
2017-12-30T19:17:45.112Z,992.31
2017-12-30T19:27:45.163Z,992.26
2017-12-30T19:47:45.206Z,992.69
2017-12-30T19:57:47.186Z,992.98
2017-12-30T20:07:45.209Z,993.14
2017-12-30T20:17:45.407Z,992.95
2017-12-30T20:27:45.162Z,993.13
2017-12-30T20:37:45.349Z,993.37
2017-12-30T20:47:45.209Z,993.67
2017-12-30T20:57:45.438Z,993.87
2017-12-30T21:07:45.186Z,993.97
2017-12-30T21:17:45.476Z,994.39
2017-12-30T21:27:45.222Z,994.51
2017-12-30T21:37:45.453Z,994.59
2017-12-30T21:47:45.409Z,994.55
2017-12-30T21:57:45.228Z,994.75
2017-12-30T22:07:45.253Z,994.66
2017-12-30T22:17:45.260Z,995.02
2017-12-30T22:27:45.370Z,995.2
2017-12-30T22:37:45.273Z,995.4
2017-12-30T22:47:45.284Z,995.63
2017-12-30T22:57:45.284Z,995.62
2017-12-30T23:07:45.338Z,995.44
2017-12-30T23:17:45.396Z,995.58
2017-12-30T23:27:45.326Z,995.67
2017-12-30T23:37:45.338Z,995.96
2017-12-30T23:47:45.434Z,996
2017-12-30T23:57:45.389Z,996.03
